Time;durP1;ratioP1;P1;durP2;ratioP2;P2;SDS_P1;SDS_P2;PMS_P1;PMS_P2;Temp;Humidity;BMP_temperature;BMP_pressure;BME280_temperature;BME280_humidity;BME280_pressure;Samples;Min_cycle;Max_cycle;Signal;HPM_P1;HPM_P2
2022/03/16 00:01:06;;;;;;;;;;;5.60;99.90;;;;;;5114709;28;20006;-78
2022/03/16 00:03:34;;;;;;;;;;;5.60;99.90;;;;;;5116748;28;20024;-75
2022/03/16 00:06:00;;;;;;;;;;;5.70;99.90;;;;;;5108512;28;20283;-75
2022/03/16 00:08:28;;;;;;;;;;;5.70;99.90;;;;;;5106087;28;20009;-75
2022/03/16 00:10:55;;;;;;;;;;;5.60;99.90;;;;;;5109900;28;20336;-74
2022/03/16 00:13:22;;;;;;;;;;;6.00;99.90;;;;;;5107909;28;19931;-73
2022/03/16 00:15:49;;;;;;;;;;;5.60;99.90;;;;;;5109546;28;19946;-74
2022/03/16 00:18:15;;;;;;;;;;;5.60;99.90;;;;;;5106305;28;20302;-74
2022/03/16 00:20:43;;;;;;;;;;;5.60;99.90;;;;;;5113198;28;19928;-72
2022/03/16 00:23:10;;;;;;;;;;;5.60;99.90;;;;;;5113558;28;19923;-73
2022/03/16 00:25:37;;;;;;;;;;;5.60;99.90;;;;;;5105378;28;20014;-73
2022/03/16 00:28:03;;;;;;;;;;;5.60;99.90;;;;;;5101133;28;19965;-73
2022/03/16 00:30:30;;;;;;;;;;;5.60;99.90;;;;;;5111104;28;20301;-73
2022/03/16 00:32:57;;;;;;;;;;;5.60;99.90;;;;;;5114672;28;19924;-73
2022/03/16 00:35:23;;;;;;;;;;;5.60;99.90;;;;;;5109023;28;19924;-73
2022/03/16 00:37:51;;;;;;;;;;;5.60;99.90;;;;;;5109031;28;19930;-72
2022/03/16 00:40:18;;;;;;;;;;;5.60;99.90;;;;;;5113963;28;19923;-72
2022/03/16 00:42:45;;;;;;;;;;;5.50;99.90;;;;;;5099238;28;19941;-73
2022/03/16 00:45:11;;;;;;;;;;;5.50;99.90;;;;;;5112546;28;20434;-74
2022/03/16 00:47:38;;;;;;;;;;;5.50;99.90;;;;;;5103573;28;19924;-74
2022/03/16 00:50:05;;;;;;;;;;;5.50;99.90;;;;;;5097453;28;19964;-74
2022/03/16 00:52:32;;;;;;;;;;;5.40;99.90;;;;;;5113233;28;19959;-74
2022/03/16 00:55:00;;;;;;;;;;;5.40;99.90;;;;;;5101226;28;19923;-74
2022/03/16 00:57:27;;;;;;;;;;;5.40;99.90;;;;;;5108321;28;19992;-75
2022/03/16 00:59:53;;;;;;;;;;;5.40;99.90;;;;;;5107964;28;19923;-74
2022/03/16 01:02:20;;;;;;;;;;;5.30;99.90;;;;;;5100273;28;19924;-74
2022/03/16 01:04:46;;;;;;;;;;;5.30;99.90;;;;;;5105211;28;19960;-74
2022/03/16 01:07:13;;;;;;;;;;;5.20;99.90;;;;;;5108942;28;19932;-75
2022/03/16 01:09:40;;;;;;;;;;;5.20;99.90;;;;;;5110710;28;19930;-74
2022/03/16 01:12:09;;;;;;;;;;;5.20;99.90;;;;;;5103916;28;19946;-75
2022/03/16 01:14:36;;;;;;;;;;;5.20;99.90;;;;;;5097474;28;19930;-75
2022/03/16 01:17:02;;;;;;;;;;;5.10;99.90;;;;;;5111236;28;19924;-74
2022/03/16 01:19:29;;;;;;;;;;;5.10;99.90;;;;;;5107302;28;19930;-74
2022/03/16 01:21:56;;;;;;;;;;;5.10;99.90;;;;;;5100903;28;19924;-75
2022/03/16 01:24:22;;;;;;;;;;;5.00;99.90;;;;;;5098681;28;19929;-74
2022/03/16 01:26:49;;;;;;;;;;;5.20;99.90;;;;;;5113256;28;19997;-74
2022/03/16 01:29:17;;;;;;;;;;;4.90;99.90;;;;;;5111799;28;19924;-74
2022/03/16 01:31:44;;;;;;;;;;;4.90;99.90;;;;;;5107558;28;19923;-74
2022/03/16 01:34:10;;;;;;;;;;;4.90;99.90;;;;;;5102579;28;19930;-73
2022/03/16 01:36:37;;;;;;;;;;;4.80;99.90;;;;;;5112124;28;19924;-73
2022/03/16 01:39:04;;;;;;;;;;;4.80;99.90;;;;;;5108558;28;19923;-74
2022/03/16 01:41:31;;;;;;;;;;;4.80;99.90;;;;;;5110975;28;20287;-74
2022/03/16 01:43:57;;;;;;;;;;;4.80;99.90;;;;;;5099944;28;20395;-74
2022/03/16 01:46:25;;;;;;;;;;;4.70;99.90;;;;;;5105364;28;20064;-75
2022/03/16 01:48:52;;;;;;;;;;;4.70;99.90;;;;;;5110768;27;19996;-73
2022/03/16 01:51:19;;;;;;;;;;;4.70;99.90;;;;;;5106960;28;19923;-74
2022/03/16 01:53:45;;;;;;;;;;;4.70;99.90;;;;;;5102735;28;19924;-74
2022/03/16 01:56:12;;;;;;;;;;;4.70;99.90;;;;;;5110176;28;19924;-74
2022/03/16 01:58:39;;;;;;;;;;;4.70;99.90;;;;;;5109903;28;19924;-74
2022/03/16 02:01:05;;;;;;;;;;;4.70;99.90;;;;;;5106288;28;20007;-74
2022/03/16 02:03:33;;;;;;;;;;;4.60;99.90;;;;;;5101936;28;20130;-74
2022/03/16 02:06:00;;;;;;;;;;;4.60;99.90;;;;;;5105390;28;19924;-74
2022/03/16 02:08:28;;;;;;;;;;;4.60;99.90;;;;;;5110775;27;19935;-74
2022/03/16 02:10:55;;;;;;;;;;;4.60;99.90;;;;;;5099568;28;19935;-74
2022/03/16 02:13:21;;;;;;;;;;;4.50;99.90;;;;;;5094189;28;19924;-74
2022/03/16 02:15:48;;;;;;;;;;;4.60;99.90;;;;;;5103519;28;19936;-74
2022/03/16 02:18:15;;;;;;;;;;;4.50;99.90;;;;;;5100300;28;19923;-73
2022/03/16 02:20:43;;;;;;;;;;;4.50;99.90;;;;;;5099790;28;19982;-74
2022/03/16 02:23:11;;;;;;;;;;;4.40;99.90;;;;;;5095861;28;19924;-73
2022/03/16 02:25:48;;;;;;;;;;;4.40;99.90;;;;;;5098290;28;20359;-73
2022/03/16 02:28:15;;;;;;;;;;;4.40;99.90;;;;;;5105536;28;20023;-75
2022/03/16 02:30:42;;;;;;;;;;;4.40;99.90;;;;;;5102302;28;19934;-73
2022/03/16 02:33:08;;;;;;;;;;;4.30;99.90;;;;;;5107528;28;19927;-73
2022/03/16 02:35:35;;;;;;;;;;;4.30;99.90;;;;;;5105936;28;20022;-73
2022/03/16 02:38:02;;;;;;;;;;;4.30;99.90;;;;;;5105236;28;19931;-73
2022/03/16 02:40:30;;;;;;;;;;;4.30;99.90;;;;;;5105427;28;20404;-73
2022/03/16 02:42:57;;;;;;;;;;;4.20;99.90;;;;;;5102408;28;19979;-73
2022/03/16 02:45:24;;;;;;;;;;;4.20;99.90;;;;;;5093804;28;20006;-74
2022/03/16 02:47:50;;;;;;;;;;;4.20;99.90;;;;;;5106752;28;19963;-73
2022/03/16 02:50:18;;;;;;;;;;;4.20;99.90;;;;;;5106551;28;19931;-74
2022/03/16 02:52:45;;;;;;;;;;;4.20;99.90;;;;;;5111036;28;19938;-73
2022/03/16 02:55:12;;;;;;;;;;;4.20;99.90;;;;;;5101707;28;19924;-73
2022/03/16 02:57:40;;;;;;;;;;;4.20;99.90;;;;;;5106988;28;19923;-76
2022/03/16 03:00:08;;;;;;;;;;;4.10;99.90;;;;;;5113018;28;20384;-73
2022/03/16 03:02:35;;;;;;;;;;;4.10;99.90;;;;;;5105231;28;19927;-73
2022/03/16 03:05:02;;;;;;;;;;;4.10;99.90;;;;;;5108290;28;20408;-73
2022/03/16 03:07:28;;;;;;;;;;;4.10;99.90;;;;;;5109564;28;19924;-73
2022/03/16 03:09:55;;;;;;;;;;;4.10;99.90;;;;;;5112704;28;19928;-75
2022/03/16 03:12:22;;;;;;;;;;;4.00;99.90;;;;;;5104370;28;19924;-73
2022/03/16 03:14:50;;;;;;;;;;;4.00;99.90;;;;;;5099713;28;20404;-74
2022/03/16 03:17:16;;;;;;;;;;;4.00;99.90;;;;;;5104831;28;19924;-74
2022/03/16 03:19:43;;;;;;;;;;;3.90;99.90;;;;;;5110541;28;19924;-74
2022/03/16 03:22:10;;;;;;;;;;;4.00;99.90;;;;;;5103120;28;19950;-73
2022/03/16 03:24:39;;;;;;;;;;;4.00;99.90;;;;;;5108033;28;19923;-74
2022/03/16 03:27:06;;;;;;;;;;;4.00;99.90;;;;;;5101923;28;20010;-73
2022/03/16 03:29:32;;;;;;;;;;;3.90;99.90;;;;;;5104886;28;19939;-74
2022/03/16 03:32:00;;;;;;;;;;;3.90;99.90;;;;;;5108244;28;19932;-74
2022/03/16 03:34:27;;;;;;;;;;;4.00;99.90;;;;;;5103631;28;20449;-74
2022/03/16 03:36:54;;;;;;;;;;;3.90;99.90;;;;;;5106787;28;20027;-74
2022/03/16 03:39:20;;;;;;;;;;;4.10;99.90;;;;;;5105434;28;19924;-74
2022/03/16 03:41:47;;;;;;;;;;;4.00;99.90;;;;;;5096010;28;20019;-74
2022/03/16 03:44:14;;;;;;;;;;;4.00;99.90;;;;;;5104555;28;19928;-74
2022/03/16 03:46:40;;;;;;;;;;;4.00;99.90;;;;;;5100750;28;20286;-74
2022/03/16 03:49:08;;;;;;;;;;;4.00;99.90;;;;;;5108095;28;19924;-73
2022/03/16 03:51:35;;;;;;;;;;;4.10;99.90;;;;;;5107623;28;19924;-73
2022/03/16 03:54:01;;;;;;;;;;;4.10;99.90;;;;;;5113090;27;19930;-74
2022/03/16 03:56:28;;;;;;;;;;;4.10;99.90;;;;;;5102346;28;19924;-73
2022/03/16 03:58:55;;;;;;;;;;;4.20;99.90;;;;;;5103476;28;19967;-73
2022/03/16 04:01:21;;;;;;;;;;;4.20;99.90;;;;;;5112031;28;20302;-73
2022/03/16 04:03:48;;;;;;;;;;;4.30;99.90;;;;;;5111928;28;19930;-73
2022/03/16 04:06:16;;;;;;;;;;;4.30;99.90;;;;;;5106392;28;19923;-73
2022/03/16 04:08:43;;;;;;;;;;;4.30;99.90;;;;;;5116004;28;19963;-73
2022/03/16 04:11:11;;;;;;;;;;;4.40;99.90;;;;;;5114997;28;19924;-73
2022/03/16 04:13:38;;;;;;;;;;;4.30;99.90;;;;;;5107006;28;19924;-73
2022/03/16 04:16:05;;;;;;;;;;;4.30;99.90;;;;;;5104529;28;19931;-73
2022/03/16 04:18:32;;;;;;;;;;;4.40;99.90;;;;;;5101335;28;19923;-73
2022/03/16 04:20:58;;;;;;;;;;;4.50;99.90;;;;;;5110713;28;19930;-75
2022/03/16 04:23:26;;;;;;;;;;;4.50;99.90;;;;;;5101237;28;20379;-74
2022/03/16 04:25:53;;;;;;;;;;;4.50;99.90;;;;;;5109298;28;19938;-73
2022/03/16 04:28:20;;;;;;;;;;;4.70;99.90;;;;;;5114746;28;19938;-74
2022/03/16 04:30:46;;;;;;;;;;;4.80;99.90;;;;;;5114425;28;19974;-74
2022/03/16 04:33:13;;;;;;;;;;;4.80;99.90;;;;;;5111593;28;20006;-73
2022/03/16 04:35:40;;;;;;;;;;;4.80;99.90;;;;;;5102994;28;19924;-75
2022/03/16 04:38:08;;;;;;;;;;;4.80;99.90;;;;;;5112774;28;20233;-74
2022/03/16 04:40:36;;;;;;;;;;;4.80;99.90;;;;;;5105181;28;19924;-74
2022/03/16 04:43:02;;;;;;;;;;;4.80;99.90;;;;;;5100961;28;19932;-74
2022/03/16 04:45:29;;;;;;;;;;;4.80;99.90;;;;;;5108119;28;20437;-74
2022/03/16 04:47:56;;;;;;;;;;;4.60;99.90;;;;;;5105871;28;20363;-73
2022/03/16 04:50:22;;;;;;;;;;;4.70;99.90;;;;;;5112076;28;19934;-73
2022/03/16 04:52:49;;;;;;;;;;;4.60;99.90;;;;;;5111336;27;19924;-72
2022/03/16 04:55:16;;;;;;;;;;;4.60;99.90;;;;;;5102966;28;19924;-73
2022/03/16 04:57:44;;;;;;;;;;;4.70;99.90;;;;;;5106863;28;19923;-73
2022/03/16 05:00:11;;;;;;;;;;;4.70;99.90;;;;;;5111609;28;19923;-73
2022/03/16 05:02:38;;;;;;;;;;;4.80;99.90;;;;;;5110548;28;19928;-73
2022/03/16 05:05:05;;;;;;;;;;;4.70;99.90;;;;;;5100699;28;19931;-74
2022/03/16 05:07:32;;;;;;;;;;;4.70;99.90;;;;;;5098191;28;19923;-73
2022/03/16 05:10:02;;;;;;;;;;;4.70;99.90;;;;;;5102593;28;19977;-73
2022/03/16 05:12:36;;;;;;;;;;;4.70;99.90;;;;;;5095473;28;19928;-72
2022/03/16 05:15:04;;;;;;;;;;;4.80;99.90;;;;;;5107214;28;19930;-73
2022/03/16 05:17:31;;;;;;;;;;;4.70;99.90;;;;;;5110320;28;19932;-74
2022/03/16 05:19:57;;;;;;;;;;;4.70;99.90;;;;;;5103713;28;19938;-74
2022/03/16 05:22:24;;;;;;;;;;;4.80;99.90;;;;;;5113827;28;19978;-74
2022/03/16 05:24:50;;;;;;;;;;;4.80;99.90;;;;;;5102364;28;19946;-74
2022/03/16 05:27:19;;;;;;;;;;;4.80;99.90;;;;;;5105689;28;19925;-73
2022/03/16 05:29:46;;;;;;;;;;;4.80;99.90;;;;;;5107561;28;19924;-74
2022/03/16 05:32:14;;;;;;;;;;;4.90;99.90;;;;;;5093206;28;20335;-74
2022/03/16 05:34:41;;;;;;;;;;;4.80;99.90;;;;;;5107524;28;20393;-72
2022/03/16 05:37:07;;;;;;;;;;;4.90;99.90;;;;;;5104027;28;20084;-75
2022/03/16 05:39:34;;;;;;;;;;;4.90;99.90;;;;;;5099537;28;20291;-74
2022/03/16 05:42:01;;;;;;;;;;;4.90;99.90;;;;;;5106853;28;19924;-74
2022/03/16 05:44:27;;;;;;;;;;;5.00;99.90;;;;;;5109620;28;19923;-75
2022/03/16 05:46:56;;;;;;;;;;;5.00;99.90;;;;;;5107873;28;20030;-75
2022/03/16 05:49:25;;;;;;;;;;;5.00;99.90;;;;;;5105930;28;19931;-74
2022/03/16 05:51:52;;;;;;;;;;;5.00;99.90;;;;;;5104739;28;19924;-74
2022/03/16 05:54:21;;;;;;;;;;;5.00;99.90;;;;;;5099681;28;19924;-74
2022/03/16 05:56:47;;;;;;;;;;;5.00;99.90;;;;;;5097669;28;20026;-74
2022/03/16 05:59:14;;;;;;;;;;;5.10;99.90;;;;;;5099793;28;20375;-74
2022/03/16 06:01:41;;;;;;;;;;;5.00;99.90;;;;;;5099969;28;20442;-74
2022/03/16 06:04:07;;;;;;;;;;;4.90;99.90;;;;;;5112168;28;19932;-75
2022/03/16 06:06:35;;;;;;;;;;;4.90;99.90;;;;;;5107868;27;19932;-73
2022/03/16 06:09:03;;;;;;;;;;;4.90;99.90;;;;;;5107818;27;19930;-74
2022/03/16 06:11:30;;;;;;;;;;;4.90;99.90;;;;;;5110256;28;19924;-74
2022/03/16 06:13:56;;;;;;;;;;;4.90;99.90;;;;;;5094800;28;20031;-75
2022/03/16 06:16:23;;;;;;;;;;;4.90;99.90;;;;;;5111890;28;19924;-74
2022/03/16 06:18:50;;;;;;;;;;;4.90;99.90;;;;;;5110613;28;19969;-72
2022/03/16 06:21:16;;;;;;;;;;;4.90;99.90;;;;;;5106589;28;20018;-72
2022/03/16 06:23:44;;;;;;;;;;;4.90;99.90;;;;;;5101500;28;19963;-71
2022/03/16 06:26:11;;;;;;;;;;;4.90;99.90;;;;;;5106035;28;19924;-72
2022/03/16 06:28:38;;;;;;;;;;;4.90;99.90;;;;;;5107348;28;19931;-70
2022/03/16 06:31:04;;;;;;;;;;;4.90;99.90;;;;;;5100263;28;19924;-71
2022/03/16 06:33:31;;;;;;;;;;;5.00;99.90;;;;;;5102061;28;20027;-71
2022/03/16 06:36:00;;;;;;;;;;;5.00;99.90;;;;;;5106799;28;20375;-72
2022/03/16 06:38:26;;;;;;;;;;;5.00;99.90;;;;;;5105428;28;19958;-70
2022/03/16 06:40:54;;;;;;;;;;;5.00;99.90;;;;;;5100444;28;20386;-71
2022/03/16 06:43:22;;;;;;;;;;;5.10;99.90;;;;;;5102800;28;19931;-73
2022/03/16 06:45:48;;;;;;;;;;;5.10;99.90;;;;;;5106706;28;19978;-71
2022/03/16 06:48:15;;;;;;;;;;;5.10;99.90;;;;;;5104229;28;20394;-72
2022/03/16 06:50:42;;;;;;;;;;;5.10;99.90;;;;;;5104224;28;19934;-71
2022/03/16 06:53:09;;;;;;;;;;;5.10;99.90;;;;;;5102806;28;19963;-71
2022/03/16 06:55:36;;;;;;;;;;;5.10;99.90;;;;;;5103293;28;19927;-71
2022/03/16 06:58:04;;;;;;;;;;;5.10;99.90;;;;;;5099641;28;19939;-71
2022/03/16 07:00:31;;;;;;;;;;;5.10;99.90;;;;;;5103159;28;19924;-72
2022/03/16 07:02:58;;;;;;;;;;;5.10;99.90;;;;;;5098835;28;19927;-72
2022/03/16 07:05:26;;;;;;;;;;;5.20;99.90;;;;;;5102208;28;20268;-74
2022/03/16 07:07:53;;;;;;;;;;;4.80;99.90;;;;;;5105627;28;19924;-72
2022/03/16 07:10:20;;;;;;;;;;;5.40;99.90;;;;;;5112791;28;20031;-71
2022/03/16 07:12:47;;;;;;;;;;;5.40;99.90;;;;;;5106398;27;19924;-72
2022/03/16 07:15:15;;;;;;;;;;;5.60;99.90;;;;;;5103067;28;19931;-71
2022/03/16 07:17:42;;;;;;;;;;;5.70;99.90;;;;;;5098401;28;20417;-72
2022/03/16 07:20:09;;;;;;;;;;;5.80;99.90;;;;;;5110641;28;20466;-73
2022/03/16 07:22:35;;;;;;;;;;;5.90;99.90;;;;;;5100264;28;20302;-71
2022/03/16 07:25:03;;;;;;;;;;;6.00;99.90;;;;;;5108222;28;19931;-73
2022/03/16 07:27:29;;;;;;;;;;;6.10;99.90;;;;;;5101849;28;19936;-73
2022/03/16 07:29:56;;;;;;;;;;;6.10;99.90;;;;;;5099322;28;19931;-73
2022/03/16 07:32:24;;;;;;;;;;;6.20;99.90;;;;;;5105730;28;19930;-73
2022/03/16 07:34:51;;;;;;;;;;;6.30;99.90;;;;;;5103079;28;19930;-74
2022/03/16 07:37:19;;;;;;;;;;;6.40;99.90;;;;;;5100610;28;19978;-73
2022/03/16 07:39:45;;;;;;;;;;;6.50;99.90;;;;;;5102513;28;19924;-72
2022/03/16 07:42:12;;;;;;;;;;;6.60;99.90;;;;;;5101622;27;19943;-72
2022/03/16 07:44:39;;;;;;;;;;;6.60;99.90;;;;;;5108377;28;20500;-72
2022/03/16 07:47:07;;;;;;;;;;;6.90;99.90;;;;;;5104541;28;19942;-71
2022/03/16 07:49:35;;;;;;;;;;;7.30;99.90;;;;;;5112372;28;20402;-71
2022/03/16 07:52:02;;;;;;;;;;;7.60;99.90;;;;;;5105742;27;20020;-74
2022/03/16 07:54:29;;;;;;;;;;;8.30;99.90;;;;;;5101652;28;19975;-72
2022/03/16 07:56:56;;;;;;;;;;;8.90;99.90;;;;;;5101195;28;19930;-73
2022/03/16 07:59:23;;;;;;;;;;;9.10;99.90;;;;;;5098948;28;19924;-72
2022/03/16 08:01:50;;;;;;;;;;;9.30;99.90;;;;;;5104403;28;19928;-73
2022/03/16 08:04:16;;;;;;;;;;;9.30;99.90;;;;;;5102952;28;19932;-72
2022/03/16 08:06:45;;;;;;;;;;;9.10;99.90;;;;;;5108948;27;19923;-74
2022/03/16 08:09:11;;;;;;;;;;;8.80;99.90;;;;;;5105608;27;19930;-74
2022/03/16 08:11:39;;;;;;;;;;;9.30;99.90;;;;;;5097638;27;20011;-73
2022/03/16 08:14:06;;;;;;;;;;;9.30;99.90;;;;;;5102342;28;19938;-73
2022/03/16 08:16:32;;;;;;;;;;;9.90;99.90;;;;;;5109403;28;20374;-73
2022/03/16 08:18:59;;;;;;;;;;;9.40;99.90;;;;;;5096285;28;19928;-73
2022/03/16 08:21:26;;;;;;;;;;;9.50;99.90;;;;;;5107737;28;19930;-73
2022/03/16 08:23:54;;;;;;;;;;;9.90;99.90;;;;;;5104830;27;19924;-73
2022/03/16 08:26:21;;;;;;;;;;;10.10;99.90;;;;;;5107206;28;19932;-74
2022/03/16 08:28:47;;;;;;;;;;;10.90;99.90;;;;;;5102406;28;19928;-74
2022/03/16 08:31:15;;;;;;;;;;;11.30;99.90;;;;;;5100217;28;19932;-72
2022/03/16 08:33:41;;;;;;;;;;;10.80;99.90;;;;;;5101491;28;19943;-75
2022/03/16 08:36:08;;;;;;;;;;;10.70;99.90;;;;;;5105631;28;19924;-73
2022/03/16 08:38:36;;;;;;;;;;;11.40;99.90;;;;;;5095926;28;19924;-72
2022/03/16 08:41:05;;;;;;;;;;;11.70;99.20;;;;;;5097568;28;20386;-73
2022/03/16 08:43:32;;;;;;;;;;;11.70;98.20;;;;;;5102804;28;19928;-73
2022/03/16 08:45:59;;;;;;;;;;;11.60;98.10;;;;;;5105091;28;19985;-74
2022/03/16 08:48:26;;;;;;;;;;;11.60;98.40;;;;;;5106121;28;19924;-73
2022/03/16 08:50:53;;;;;;;;;;;11.00;98.60;;;;;;5098855;28;19933;-73
2022/03/16 08:53:20;;;;;;;;;;;11.30;99.00;;;;;;5094623;28;19939;-73
2022/03/16 08:55:46;;;;;;;;;;;11.80;99.20;;;;;;5102641;28;19935;-73
2022/03/16 08:58:14;;;;;;;;;;;12.50;97.00;;;;;;5097134;28;19924;-73
2022/03/16 09:00:42;;;;;;;;;;;12.90;96.70;;;;;;5100823;28;19943;-74
2022/03/16 09:03:09;;;;;;;;;;;13.10;93.70;;;;;;5105013;28;19928;-73
2022/03/16 09:05:35;;;;;;;;;;;12.60;93.60;;;;;;5097323;28;20013;-73
2022/03/16 09:08:03;;;;;;;;;;;12.50;93.40;;;;;;5104570;28;19924;-73
2022/03/16 09:10:29;;;;;;;;;;;12.50;93.40;;;;;;5102489;27;19924;-74
2022/03/16 09:12:56;;;;;;;;;;;12.20;93.80;;;;;;5100904;28;20335;-73
2022/03/16 09:15:24;;;;;;;;;;;12.90;92.70;;;;;;5100121;28;19932;-75
2022/03/16 09:17:52;;;;;;;;;;;12.70;92.50;;;;;;5109526;28;20337;-74
2022/03/16 09:20:19;;;;;;;;;;;13.10;92.90;;;;;;5110433;28;19928;-73
2022/03/16 09:22:45;;;;;;;;;;;13.30;92.00;;;;;;5108077;28;19924;-73
2022/03/16 09:25:12;;;;;;;;;;;13.50;91.20;;;;;;5106355;28;19930;-72
2022/03/16 09:27:39;;;;;;;;;;;13.40;90.80;;;;;;5103722;28;20378;-75
2022/03/16 09:30:06;;;;;;;;;;;13.40;90.60;;;;;;5101827;28;19928;-74
2022/03/16 09:32:34;;;;;;;;;;;13.20;90.90;;;;;;5101278;28;19932;-74
2022/03/16 09:35:01;;;;;;;;;;;13.10;90.90;;;;;;5109520;28;19930;-73
2022/03/16 09:37:28;;;;;;;;;;;12.80;91.40;;;;;;5106168;28;20310;-74
2022/03/16 09:39:55;;;;;;;;;;;12.80;91.90;;;;;;5101353;28;19925;-73
2022/03/16 09:42:22;;;;;;;;;;;12.80;91.70;;;;;;5101982;28;20022;-73
2022/03/16 09:44:51;;;;;;;;;;;13.00;91.70;;;;;;5101996;28;20025;-73
2022/03/16 09:47:18;;;;;;;;;;;12.90;91.50;;;;;;5099673;28;19931;-74
2022/03/16 09:49:46;;;;;;;;;;;12.70;91.80;;;;;;5104116;28;20337;-73
2022/03/16 09:52:13;;;;;;;;;;;12.40;92.10;;;;;;5105346;28;19924;-74
2022/03/16 09:54:41;;;;;;;;;;;12.40;92.40;;;;;;5107426;28;19993;-72
2022/03/16 09:57:07;;;;;;;;;;;12.30;93.20;;;;;;5099009;28;19931;-73
2022/03/16 09:59:34;;;;;;;;;;;12.40;92.90;;;;;;5106478;28;20019;-73
2022/03/16 10:02:06;;;;;;;;;;;12.30;92.90;;;;;;5103517;28;20022;-73
2022/03/16 10:04:35;;;;;;;;;;;12.20;93.10;;;;;;5095672;28;19969;-73
2022/03/16 10:07:04;;;;;;;;;;;11.80;93.70;;;;;;5097342;28;20049;-72
2022/03/16 10:15:10;;;;;;;;;;;11.50;95.60;;;;;;5102014;28;19923;-72
2022/03/16 10:17:46;;;;;;;;;;;11.50;95.50;;;;;;5095720;28;19924;-72
2022/03/16 10:20:20;;;;;;;;;;;11.60;96.60;;;;;;5101909;28;20383;-74
2022/03/16 10:22:55;;;;;;;;;;;11.80;95.70;;;;;;5098395;28;19931;-74
2022/03/16 10:25:22;;;;;;;;;;;11.90;95.20;;;;;;5100215;28;20034;-75
2022/03/16 10:27:49;;;;;;;;;;;12.00;95.40;;;;;;5099120;28;19928;-74
2022/03/16 10:30:15;;;;;;;;;;;12.20;95.50;;;;;;5105072;28;19927;-74
2022/03/16 10:32:53;;;;;;;;;;;12.60;94.50;;;;;;5092906;28;19982;-74
2022/03/16 10:35:20;;;;;;;;;;;12.30;94.60;;;;;;5105878;28;19928;-75
2022/03/16 10:37:47;;;;;;;;;;;12.00;95.70;;;;;;5098704;28;19999;-75
2022/03/16 10:40:19;;;;;;;;;;;12.10;95.90;;;;;;5096219;28;19951;-74
2022/03/16 10:48:16;;;;;;;;;;;12.00;96.10;;;;;;5095763;28;20067;-72
2022/03/16 10:50:43;;;;;;;;;;;12.20;96.00;;;;;;5101615;28;19932;-72
2022/03/16 10:53:10;;;;;;;;;;;12.40;96.30;;;;;;5099894;28;19938;-73
2022/03/16 10:55:38;;;;;;;;;;;12.50;95.50;;;;;;5100739;28;19938;-74
2022/03/16 10:58:06;;;;;;;;;;;12.60;95.20;;;;;;5102719;28;20006;-75
2022/03/16 11:00:33;;;;;;;;;;;12.80;95.10;;;;;;5094415;28;20383;-75
2022/03/16 11:03:01;;;;;;;;;;;12.70;95.20;;;;;;5100884;28;20365;-76
2022/03/16 11:05:28;;;;;;;;;;;12.70;95.10;;;;;;5106161;28;19923;-78
2022/03/16 11:07:54;;;;;;;;;;;12.00;96.90;;;;;;5097662;28;19924;-75
2022/03/16 11:10:21;;;;;;;;;;;12.20;97.00;;;;;;5100212;28;20366;-76
2022/03/16 11:15:33;;;;;;;;;;;12.40;96.70;;;;;;5092820;28;20410;-72
2022/03/16 11:18:00;;;;;;;;;;;12.30;96.90;;;;;;5100286;28;20314;-72
2022/03/16 11:20:30;;;;;;;;;;;11.90;98.10;;;;;;5106066;28;19931;-72
2022/03/16 11:25:52;;;;;;;;;;;12.10;98.80;;;;;;5094439;28;19984;-72
2022/03/16 11:28:24;;;;;;;;;;;12.20;98.60;;;;;;5100259;28;19931;-72
2022/03/16 11:30:53;;;;;;;;;;;12.30;98.30;;;;;;5103147;28;20109;-73
2022/03/16 11:33:20;;;;;;;;;;;12.60;98.30;;;;;;5098389;28;19977;-73
2022/03/16 11:35:50;;;;;;;;;;;12.70;97.80;;;;;;5103600;27;20347;-73
2022/03/16 11:38:18;;;;;;;;;;;12.70;97.60;;;;;;5100978;28;19924;-71
2022/03/16 11:40:46;;;;;;;;;;;12.50;98.60;;;;;;5100545;28;19931;-73
2022/03/16 11:43:17;;;;;;;;;;;12.30;99.10;;;;;;5100893;28;19924;-74
2022/03/16 11:45:50;;;;;;;;;;;12.10;99.50;;;;;;5099879;28;20016;-72
2022/03/16 11:48:36;;;;;;;;;;;11.90;99.90;;;;;;5098266;28;19963;-72
2022/03/16 11:51:29;;;;;;;;;;;12.00;99.90;;;;;;5104069;28;19931;-74
2022/03/16 11:54:09;;;;;;;;;;;11.90;99.90;;;;;;5054708;28;19927;-73
2022/03/16 11:56:53;;;;;;;;;;;12.00;99.90;;;;;;5100388;28;19923;-73
2022/03/16 11:59:31;;;;;;;;;;;12.20;99.90;;;;;;5105316;28;20291;-73
2022/03/16 12:02:12;;;;;;;;;;;12.30;99.90;;;;;;5104278;28;19924;-73
2022/03/16 12:04:40;;;;;;;;;;;12.40;99.90;;;;;;5102891;28;19943;-73
2022/03/16 12:07:10;;;;;;;;;;;12.80;99.90;;;;;;5103235;28;19931;-72
2022/03/16 12:09:39;;;;;;;;;;;12.70;99.90;;;;;;5098047;28;19924;-73
2022/03/16 12:15:17;;;;;;;;;;;12.70;99.90;;;;;;5101979;28;19973;-72
2022/03/16 12:17:59;;;;;;;;;;;12.50;99.90;;;;;;5105372;28;20338;-72
2022/03/16 12:20:29;;;;;;;;;;;12.50;99.90;;;;;;5095247;28;19927;-75
2022/03/16 12:22:56;;;;;;;;;;;12.30;99.90;;;;;;5105520;28;20005;-73
2022/03/16 12:25:33;;;;;;;;;;;12.40;99.90;;;;;;5099730;28;19928;-73
2022/03/16 12:31:00;;;;;;;;;;;12.50;99.90;;;;;;5064987;28;20343;-73
2022/03/16 12:33:28;;;;;;;;;;;12.40;99.90;;;;;;5055944;28;19925;-73
2022/03/16 12:36:02;;;;;;;;;;;12.50;99.90;;;;;;5080341;28;19967;-73
2022/03/16 12:38:30;;;;;;;;;;;12.30;99.90;;;;;;5096841;28;20294;-73
2022/03/16 12:43:43;;;;;;;;;;;12.60;99.90;;;;;;5095737;28;20417;-73
2022/03/16 12:46:14;;;;;;;;;;;12.70;99.90;;;;;;5107433;28;20376;-72
2022/03/16 12:48:41;;;;;;;;;;;13.00;99.90;;;;;;5099703;28;19936;-73
2022/03/16 12:51:09;;;;;;;;;;;12.70;99.90;;;;;;5105918;28;20022;-75
2022/03/16 12:53:44;;;;;;;;;;;12.40;99.90;;;;;;5103196;28;19923;-77
2022/03/16 12:56:11;;;;;;;;;;;12.50;99.90;;;;;;5098179;28;19935;-74
2022/03/16 12:58:39;;;;;;;;;;;12.70;99.90;;;;;;5103925;28;19934;-74
2022/03/16 13:01:05;;;;;;;;;;;12.80;99.90;;;;;;5103485;28;19932;-73
2022/03/16 13:03:32;;;;;;;;;;;12.80;99.90;;;;;;5100653;28;20036;-72
2022/03/16 13:05:59;;;;;;;;;;;12.90;99.90;;;;;;5097517;28;19927;-72
2022/03/16 13:08:27;;;;;;;;;;;13.00;99.90;;;;;;5098784;28;19930;-74
2022/03/16 13:13:44;;;;;;;;;;;13.10;99.90;;;;;;5101039;28;19928;-73
2022/03/16 13:16:11;;;;;;;;;;;13.10;99.90;;;;;;5100859;28;20470;-73
2022/03/16 13:18:38;;;;;;;;;;;13.10;99.90;;;;;;5104894;28;19928;-73
2022/03/16 13:21:21;;;;;;;;;;;12.90;99.90;;;;;;5098918;28;19928;-76
2022/03/16 13:23:49;;;;;;;;;;;12.90;99.90;;;;;;5106312;28;20369;-73
2022/03/16 13:26:16;;;;;;;;;;;12.90;99.90;;;;;;5105448;28;20298;-74
2022/03/16 13:28:43;;;;;;;;;;;12.70;99.90;;;;;;5103681;28;20008;-76
2022/03/16 13:31:10;;;;;;;;;;;13.00;99.90;;;;;;5098960;28;19923;-75
2022/03/16 13:33:36;;;;;;;;;;;13.10;99.90;;;;;;5103874;28;19930;-74
2022/03/16 13:36:10;;;;;;;;;;;13.20;99.90;;;;;;5102690;28;19924;-74
2022/03/16 13:38:37;;;;;;;;;;;13.30;99.90;;;;;;5103186;28;19934;-75
2022/03/16 13:41:12;;;;;;;;;;;13.20;99.90;;;;;;5103663;28;19923;-74
2022/03/16 13:43:40;;;;;;;;;;;13.20;99.90;;;;;;5100334;28;19928;-76
2022/03/16 13:46:09;;;;;;;;;;;13.20;99.90;;;;;;5103294;28;19946;-75
2022/03/16 13:48:38;;;;;;;;;;;13.10;99.90;;;;;;5097079;28;19930;-75
2022/03/16 13:51:06;;;;;;;;;;;13.10;99.90;;;;;;5097113;28;19942;-75
2022/03/16 13:53:39;;;;;;;;;;;12.90;99.90;;;;;;5101440;28;19970;-75
2022/03/16 13:56:13;;;;;;;;;;;13.00;99.90;;;;;;5105754;28;19931;-81
2022/03/16 13:58:41;;;;;;;;;;;13.00;99.90;;;;;;5099861;28;19924;-81
2022/03/16 14:01:08;;;;;;;;;;;13.10;99.90;;;;;;5099560;28;20338;-83
2022/03/16 14:03:35;;;;;;;;;;;13.10;99.90;;;;;;5095802;28;19932;-74
2022/03/16 14:06:11;;;;;;;;;;;13.10;99.90;;;;;;5098542;28;19939;-75
2022/03/16 14:08:38;;;;;;;;;;;13.10;99.90;;;;;;5101198;28;20054;-74
2022/03/16 14:11:04;;;;;;;;;;;13.00;99.90;;;;;;5107989;28;19967;-75
2022/03/16 14:13:39;;;;;;;;;;;12.90;99.90;;;;;;5094391;28;20313;-74
2022/03/16 14:16:11;;;;;;;;;;;12.90;99.90;;;;;;5098304;28;19927;-74
2022/03/16 14:18:38;;;;;;;;;;;12.80;99.90;;;;;;5094753;28;19928;-75
2022/03/16 14:21:07;;;;;;;;;;;12.90;99.90;;;;;;5101107;28;19931;-74
2022/03/16 14:23:34;;;;;;;;;;;12.90;99.90;;;;;;5097241;28;19985;-75
2022/03/16 14:26:01;;;;;;;;;;;12.90;99.90;;;;;;5094600;28;20030;-77
2022/03/16 14:28:28;;;;;;;;;;;13.00;99.90;;;;;;5100271;28;19932;-74
2022/03/16 14:30:56;;;;;;;;;;;13.00;99.90;;;;;;5103926;28;19928;-74
2022/03/16 14:33:24;;;;;;;;;;;13.00;99.90;;;;;;5101400;28;20018;-73
2022/03/16 14:35:51;;;;;;;;;;;12.90;99.90;;;;;;5099219;28;19924;-71
2022/03/16 14:38:20;;;;;;;;;;;13.00;99.90;;;;;;5105627;28;20208;-71
2022/03/16 14:40:54;;;;;;;;;;;13.10;99.90;;;;;;5101225;28;19927;-73
2022/03/16 14:43:22;;;;;;;;;;;13.10;99.90;;;;;;5091767;28;19924;-74
2022/03/16 14:45:48;;;;;;;;;;;13.00;99.90;;;;;;5098651;28;19993;-73
2022/03/16 14:48:17;;;;;;;;;;;13.00;99.90;;;;;;5100261;28;20398;-72
2022/03/16 14:50:43;;;;;;;;;;;13.10;99.90;;;;;;5097272;28;19924;-75
2022/03/16 14:53:13;;;;;;;;;;;13.10;99.90;;;;;;5100665;28;19931;-74
2022/03/16 14:55:40;;;;;;;;;;;13.20;99.90;;;;;;5100418;28;19924;-73